sensor_id;sensor_type;location;lat;lon;timestamp;P1;durP1;ratioP1;P2;durP2;ratioP2
3131;SDS011;62090;52.330;9.104;2023-08-24T00:01:41;4.97;;;1.90;;
3131;SDS011;62090;52.330;9.104;2023-08-24T00:04:11;7.70;;;2.87;;
3131;SDS011;62090;52.330;9.104;2023-08-24T00:06:41;3.87;;;2.60;;
3131;SDS011;62090;52.330;9.104;2023-08-24T00:09:10;8.90;;;2.63;;
3131;SDS011;62090;52.330;9.104;2023-08-24T00:11:42;5.40;;;2.87;;
3131;SDS011;62090;52.330;9.104;2023-08-24T00:14:12;8.07;;;2.07;;
3131;SDS011;62090;52.330;9.104;2023-08-24T00:16:44;4.40;;;2.63;;
3131;SDS011;62090;52.330;9.104;2023-08-24T00:19:14;3.60;;;2.37;;
3131;SDS011;62090;52.330;9.104;2023-08-24T00:21:44;5.17;;;2.83;;
3131;SDS011;62090;52.330;9.104;2023-08-24T00:24:14;4.00;;;2.07;;
3131;SDS011;62090;52.330;9.104;2023-08-24T00:26:44;13.00;;;2.10;;
3131;SDS011;62090;52.330;9.104;2023-08-24T00:29:14;5.60;;;2.40;;
3131;SDS011;62090;52.330;9.104;2023-08-24T00:31:47;12.50;;;3.30;;
3131;SDS011;62090;52.330;9.104;2023-08-24T00:34:17;4.87;;;2.77;;
3131;SDS011;62090;52.330;9.104;2023-08-24T00:36:47;4.20;;;2.40;;
3131;SDS011;62090;52.330;9.104;2023-08-24T00:39:16;7.67;;;2.50;;
3131;SDS011;62090;52.330;9.104;2023-08-24T00:41:47;4.77;;;2.40;;
3131;SDS011;62090;52.330;9.104;2023-08-24T00:44:17;3.77;;;2.20;;
3131;SDS011;62090;52.330;9.104;2023-08-24T00:46:49;12.13;;;2.37;;
3131;SDS011;62090;52.330;9.104;2023-08-24T00:49:19;4.53;;;2.30;;
3131;SDS011;62090;52.330;9.104;2023-08-24T00:51:50;7.40;;;2.80;;
3131;SDS011;62090;52.330;9.104;2023-08-24T00:54:20;6.70;;;2.20;;
3131;SDS011;62090;52.330;9.104;2023-08-24T00:56:50;5.43;;;2.60;;
3131;SDS011;62090;52.330;9.104;2023-08-24T00:59:21;10.67;;;3.60;;
3131;SDS011;62090;52.330;9.104;2023-08-24T01:01:54;5.60;;;2.60;;
3131;SDS011;62090;52.330;9.104;2023-08-24T01:04:25;3.77;;;2.70;;
3131;SDS011;62090;52.330;9.104;2023-08-24T01:06:55;5.80;;;2.83;;
3131;SDS011;62090;52.330;9.104;2023-08-24T01:09:25;2.60;;;2.20;;
3131;SDS011;62090;52.330;9.104;2023-08-24T01:11:58;5.50;;;2.90;;
3131;SDS011;62090;52.330;9.104;2023-08-24T01:14:36;5.10;;;3.70;;
3131;SDS011;62090;52.330;9.104;2023-08-24T01:17:18;5.87;;;3.00;;
3131;SDS011;62090;52.330;9.104;2023-08-24T01:19:54;7.43;;;2.50;;
3131;SDS011;62090;52.330;9.104;2023-08-24T01:22:30;5.20;;;3.20;;
3131;SDS011;62090;52.330;9.104;2023-08-24T01:25:07;6.60;;;2.80;;
3131;SDS011;62090;52.330;9.104;2023-08-24T01:27:48;9.03;;;2.60;;
3131;SDS011;62090;52.330;9.104;2023-08-24T01:30:19;7.93;;;3.37;;
3131;SDS011;62090;52.330;9.104;2023-08-24T01:32:49;10.50;;;3.10;;
3131;SDS011;62090;52.330;9.104;2023-08-24T01:35:19;5.30;;;2.80;;
3131;SDS011;62090;52.330;9.104;2023-08-24T01:37:50;4.37;;;2.80;;
3131;SDS011;62090;52.330;9.104;2023-08-24T01:40:20;9.23;;;2.80;;
3131;SDS011;62090;52.330;9.104;2023-08-24T01:43:01;5.60;;;3.27;;
3131;SDS011;62090;52.330;9.104;2023-08-24T01:45:33;8.20;;;2.50;;
3131;SDS011;62090;52.330;9.104;2023-08-24T01:48:03;4.40;;;2.20;;
3131;SDS011;62090;52.330;9.104;2023-08-24T01:50:34;3.50;;;2.47;;
3131;SDS011;62090;52.330;9.104;2023-08-24T01:53:05;4.77;;;2.20;;
3131;SDS011;62090;52.330;9.104;2023-08-24T01:55:35;6.63;;;2.37;;
3131;SDS011;62090;52.330;9.104;2023-08-24T01:58:08;4.87;;;2.63;;
3131;SDS011;62090;52.330;9.104;2023-08-24T02:00:38;4.17;;;2.70;;
3131;SDS011;62090;52.330;9.104;2023-08-24T02:03:08;4.50;;;2.57;;
3131;SDS011;62090;52.330;9.104;2023-08-24T02:05:38;2.70;;;2.20;;
3131;SDS011;62090;52.330;9.104;2023-08-24T02:08:08;4.30;;;2.23;;
3131;SDS011;62090;52.330;9.104;2023-08-24T02:10:37;6.80;;;2.67;;
3131;SDS011;62090;52.330;9.104;2023-08-24T02:13:10;2.90;;;2.27;;
3131;SDS011;62090;52.330;9.104;2023-08-24T02:15:40;3.83;;;2.73;;
3131;SDS011;62090;52.330;9.104;2023-08-24T02:18:10;8.33;;;2.80;;
3131;SDS011;62090;52.330;9.104;2023-08-24T02:20:40;8.03;;;2.50;;
3131;SDS011;62090;52.330;9.104;2023-08-24T02:23:10;10.40;;;2.60;;
3131;SDS011;62090;52.330;9.104;2023-08-24T02:25:41;3.30;;;2.37;;
3131;SDS011;62090;52.330;9.104;2023-08-24T02:28:14;6.00;;;2.27;;
3131;SDS011;62090;52.330;9.104;2023-08-24T02:30:45;5.40;;;2.70;;
3131;SDS011;62090;52.330;9.104;2023-08-24T02:33:16;12.17;;;2.67;;
3131;SDS011;62090;52.330;9.104;2023-08-24T02:35:46;3.30;;;2.40;;
3131;SDS011;62090;52.330;9.104;2023-08-24T02:38:16;20.30;;;2.60;;
3131;SDS011;62090;52.330;9.104;2023-08-24T02:40:46;4.00;;;2.67;;
3131;SDS011;62090;52.330;9.104;2023-08-24T02:43:19;6.07;;;2.60;;
3131;SDS011;62090;52.330;9.104;2023-08-24T02:45:49;4.10;;;3.00;;
3131;SDS011;62090;52.330;9.104;2023-08-24T02:48:18;4.30;;;3.10;;
3131;SDS011;62090;52.330;9.104;2023-08-24T02:50:49;3.40;;;2.67;;
3131;SDS011;62090;52.330;9.104;2023-08-24T02:53:19;4.33;;;3.00;;
3131;SDS011;62090;52.330;9.104;2023-08-24T02:55:49;4.97;;;3.77;;
3131;SDS011;62090;52.330;9.104;2023-08-24T02:58:23;4.33;;;3.03;;
3131;SDS011;62090;52.330;9.104;2023-08-24T03:00:53;7.40;;;2.60;;
3131;SDS011;62090;52.330;9.104;2023-08-24T03:03:24;9.60;;;3.07;;
3131;SDS011;62090;52.330;9.104;2023-08-24T03:05:55;4.03;;;3.13;;
3131;SDS011;62090;52.330;9.104;2023-08-24T03:08:28;6.40;;;3.53;;
3131;SDS011;62090;52.330;9.104;2023-08-24T03:10:59;3.77;;;3.00;;
3131;SDS011;62090;52.330;9.104;2023-08-24T03:13:33;4.00;;;2.80;;
3131;SDS011;62090;52.330;9.104;2023-08-24T03:16:06;5.00;;;2.70;;
3131;SDS011;62090;52.330;9.104;2023-08-24T03:18:37;4.87;;;2.90;;
3131;SDS011;62090;52.330;9.104;2023-08-24T03:21:07;4.13;;;2.60;;
3131;SDS011;62090;52.330;9.104;2023-08-24T03:23:37;5.63;;;2.50;;
3131;SDS011;62090;52.330;9.104;2023-08-24T03:26:06;4.27;;;2.80;;
3131;SDS011;62090;52.330;9.104;2023-08-24T03:28:39;2.90;;;2.47;;
3131;SDS011;62090;52.330;9.104;2023-08-24T03:31:09;5.37;;;2.60;;
3131;SDS011;62090;52.330;9.104;2023-08-24T03:33:39;2.77;;;2.43;;
3131;SDS011;62090;52.330;9.104;2023-08-24T03:36:09;4.83;;;3.17;;
3131;SDS011;62090;52.330;9.104;2023-08-24T03:38:39;4.50;;;2.53;;
3131;SDS011;62090;52.330;9.104;2023-08-24T03:41:09;10.83;;;2.50;;
3131;SDS011;62090;52.330;9.104;2023-08-24T03:43:42;5.47;;;2.70;;
3131;SDS011;62090;52.330;9.104;2023-08-24T03:46:12;3.70;;;2.60;;
3131;SDS011;62090;52.330;9.104;2023-08-24T03:48:41;3.13;;;2.37;;
3131;SDS011;62090;52.330;9.104;2023-08-24T03:51:11;5.33;;;2.60;;
3131;SDS011;62090;52.330;9.104;2023-08-24T03:53:41;4.73;;;2.53;;
3131;SDS011;62090;52.330;9.104;2023-08-24T03:56:12;8.33;;;2.47;;
3131;SDS011;62090;52.330;9.104;2023-08-24T03:58:44;3.13;;;2.40;;
3131;SDS011;62090;52.330;9.104;2023-08-24T04:01:16;4.50;;;2.57;;
3131;SDS011;62090;52.330;9.104;2023-08-24T04:03:46;5.60;;;3.00;;
3131;SDS011;62090;52.330;9.104;2023-08-24T04:06:17;3.60;;;2.80;;
3131;SDS011;62090;52.330;9.104;2023-08-24T04:08:47;6.33;;;2.63;;
3131;SDS011;62090;52.330;9.104;2023-08-24T04:11:18;6.70;;;2.73;;
3131;SDS011;62090;52.330;9.104;2023-08-24T04:13:51;3.23;;;2.77;;
3131;SDS011;62090;52.330;9.104;2023-08-24T04:16:21;3.87;;;3.37;;
3131;SDS011;62090;52.330;9.104;2023-08-24T04:18:51;7.30;;;3.73;;
3131;SDS011;62090;52.330;9.104;2023-08-24T04:21:23;6.30;;;4.30;;
3131;SDS011;62090;52.330;9.104;2023-08-24T04:23:53;4.00;;;3.33;;
3131;SDS011;62090;52.330;9.104;2023-08-24T04:26:23;5.90;;;3.50;;
3131;SDS011;62090;52.330;9.104;2023-08-24T04:28:56;7.73;;;3.77;;
3131;SDS011;62090;52.330;9.104;2023-08-24T04:31:26;9.63;;;4.00;;
3131;SDS011;62090;52.330;9.104;2023-08-24T04:33:56;7.57;;;3.47;;
3131;SDS011;62090;52.330;9.104;2023-08-24T04:36:25;6.30;;;3.70;;
3131;SDS011;62090;52.330;9.104;2023-08-24T04:38:55;6.60;;;3.43;;
3131;SDS011;62090;52.330;9.104;2023-08-24T04:41:26;6.30;;;3.30;;
3131;SDS011;62090;52.330;9.104;2023-08-24T04:43:59;4.80;;;2.67;;
3131;SDS011;62090;52.330;9.104;2023-08-24T04:46:29;5.87;;;3.10;;
3131;SDS011;62090;52.330;9.104;2023-08-24T04:48:59;5.27;;;2.50;;
3131;SDS011;62090;52.330;9.104;2023-08-24T04:51:30;7.47;;;3.87;;
3131;SDS011;62090;52.330;9.104;2023-08-24T04:53:59;5.17;;;4.10;;
3131;SDS011;62090;52.330;9.104;2023-08-24T04:56:29;7.63;;;4.20;;
3131;SDS011;62090;52.330;9.104;2023-08-24T04:59:02;7.67;;;4.33;;
3131;SDS011;62090;52.330;9.104;2023-08-24T05:01:32;12.80;;;5.00;;
3131;SDS011;62090;52.330;9.104;2023-08-24T05:04:02;7.07;;;4.13;;
3131;SDS011;62090;52.330;9.104;2023-08-24T05:06:32;6.43;;;4.20;;
3131;SDS011;62090;52.330;9.104;2023-08-24T05:09:02;9.63;;;5.07;;
3131;SDS011;62090;52.330;9.104;2023-08-24T05:11:32;10.20;;;4.00;;
3131;SDS011;62090;52.330;9.104;2023-08-24T05:14:04;6.70;;;4.77;;
3131;SDS011;62090;52.330;9.104;2023-08-24T05:16:34;10.50;;;5.20;;
3131;SDS011;62090;52.330;9.104;2023-08-24T05:19:04;13.07;;;4.90;;
3131;SDS011;62090;52.330;9.104;2023-08-24T05:21:34;8.93;;;4.30;;
3131;SDS011;62090;52.330;9.104;2023-08-24T05:24:08;6.03;;;4.30;;
3131;SDS011;62090;52.330;9.104;2023-08-24T05:26:38;10.50;;;4.17;;
3131;SDS011;62090;52.330;9.104;2023-08-24T05:29:11;11.00;;;4.37;;
3131;SDS011;62090;52.330;9.104;2023-08-24T05:31:40;4.87;;;3.97;;
3131;SDS011;62090;52.330;9.104;2023-08-24T05:34:10;8.03;;;4.20;;
3131;SDS011;62090;52.330;9.104;2023-08-24T05:36:40;6.40;;;3.60;;
3131;SDS011;62090;52.330;9.104;2023-08-24T05:39:10;7.57;;;4.17;;
3131;SDS011;62090;52.330;9.104;2023-08-24T05:41:40;5.97;;;4.43;;
3131;SDS011;62090;52.330;9.104;2023-08-24T05:44:12;9.53;;;3.87;;
3131;SDS011;62090;52.330;9.104;2023-08-24T05:46:43;5.50;;;4.10;;
3131;SDS011;62090;52.330;9.104;2023-08-24T05:49:13;8.80;;;5.03;;
3131;SDS011;62090;52.330;9.104;2023-08-24T05:51:43;12.90;;;4.40;;
3131;SDS011;62090;52.330;9.104;2023-08-24T05:54:14;11.23;;;4.73;;
3131;SDS011;62090;52.330;9.104;2023-08-24T05:56:45;6.60;;;3.87;;
3131;SDS011;62090;52.330;9.104;2023-08-24T05:59:17;11.80;;;4.97;;
3131;SDS011;62090;52.330;9.104;2023-08-24T06:01:47;6.50;;;4.07;;
3131;SDS011;62090;52.330;9.104;2023-08-24T06:04:17;10.50;;;4.57;;
3131;SDS011;62090;52.330;9.104;2023-08-24T06:06:48;11.30;;;3.77;;
3131;SDS011;62090;52.330;9.104;2023-08-24T06:09:18;6.70;;;3.93;;
3131;SDS011;62090;52.330;9.104;2023-08-24T06:11:48;9.57;;;4.67;;
3131;SDS011;62090;52.330;9.104;2023-08-24T06:14:20;10.97;;;4.47;;
3131;SDS011;62090;52.330;9.104;2023-08-24T06:16:50;5.90;;;4.30;;
3131;SDS011;62090;52.330;9.104;2023-08-24T06:19:20;10.10;;;4.60;;
3131;SDS011;62090;52.330;9.104;2023-08-24T06:21:50;8.73;;;4.77;;
3131;SDS011;62090;52.330;9.104;2023-08-24T06:24:20;9.20;;;4.10;;
3131;SDS011;62090;52.330;9.104;2023-08-24T06:26:50;17.20;;;5.63;;
3131;SDS011;62090;52.330;9.104;2023-08-24T06:29:23;7.87;;;4.97;;
3131;SDS011;62090;52.330;9.104;2023-08-24T06:31:53;8.63;;;4.70;;
3131;SDS011;62090;52.330;9.104;2023-08-24T06:34:23;9.83;;;5.47;;
3131;SDS011;62090;52.330;9.104;2023-08-24T06:36:52;10.50;;;4.83;;
3131;SDS011;62090;52.330;9.104;2023-08-24T06:39:23;9.87;;;5.80;;
3131;SDS011;62090;52.330;9.104;2023-08-24T06:41:53;7.03;;;5.40;;
3131;SDS011;62090;52.330;9.104;2023-08-24T06:44:27;10.50;;;5.30;;
3131;SDS011;62090;52.330;9.104;2023-08-24T06:46:57;8.93;;;5.10;;
3131;SDS011;62090;52.330;9.104;2023-08-24T06:49:31;7.87;;;4.40;;
3131;SDS011;62090;52.330;9.104;2023-08-24T06:52:01;6.77;;;5.80;;
3131;SDS011;62090;52.330;9.104;2023-08-24T06:54:30;7.50;;;5.67;;
3131;SDS011;62090;52.330;9.104;2023-08-24T06:57:01;7.10;;;5.17;;
3131;SDS011;62090;52.330;9.104;2023-08-24T06:59:33;7.30;;;5.03;;
3131;SDS011;62090;52.330;9.104;2023-08-24T07:02:03;6.40;;;5.60;;
3131;SDS011;62090;52.330;9.104;2023-08-24T07:04:34;7.53;;;6.03;;
3131;SDS011;62090;52.330;9.104;2023-08-24T07:07:06;6.57;;;5.60;;
3131;SDS011;62090;52.330;9.104;2023-08-24T07:09:36;12.63;;;7.37;;
3131;SDS011;62090;52.330;9.104;2023-08-24T07:12:06;9.10;;;6.50;;
3131;SDS011;62090;52.330;9.104;2023-08-24T07:14:39;9.33;;;6.50;;
3131;SDS011;62090;52.330;9.104;2023-08-24T07:17:09;10.80;;;6.90;;
3131;SDS011;62090;52.330;9.104;2023-08-24T07:19:39;10.93;;;6.97;;
3131;SDS011;62090;52.330;9.104;2023-08-24T07:22:09;10.63;;;7.70;;
3131;SDS011;62090;52.330;9.104;2023-08-24T07:24:41;16.07;;;9.03;;
3131;SDS011;62090;52.330;9.104;2023-08-24T07:27:12;12.67;;;8.53;;
3131;SDS011;62090;52.330;9.104;2023-08-24T07:29:46;12.00;;;9.40;;
3131;SDS011;62090;52.330;9.104;2023-08-24T07:32:16;17.00;;;8.43;;
3131;SDS011;62090;52.330;9.104;2023-08-24T07:34:47;11.53;;;8.37;;
3131;SDS011;62090;52.330;9.104;2023-08-24T07:37:17;17.40;;;7.80;;
3131;SDS011;62090;52.330;9.104;2023-08-24T07:39:47;14.60;;;7.30;;
3131;SDS011;62090;52.330;9.104;2023-08-24T07:42:19;14.97;;;8.30;;
3131;SDS011;62090;52.330;9.104;2023-08-24T07:44:52;12.93;;;8.30;;
3131;SDS011;62090;52.330;9.104;2023-08-24T07:47:22;12.30;;;7.90;;
3131;SDS011;62090;52.330;9.104;2023-08-24T07:49:52;15.60;;;8.17;;
3131;SDS011;62090;52.330;9.104;2023-08-24T07:52:21;9.33;;;7.93;;
3131;SDS011;62090;52.330;9.104;2023-08-24T07:54:54;15.00;;;8.40;;
3131;SDS011;62090;52.330;9.104;2023-08-24T07:57:26;14.07;;;8.63;;
3131;SDS011;62090;52.330;9.104;2023-08-24T07:59:58;10.13;;;7.63;;
3131;SDS011;62090;52.330;9.104;2023-08-24T08:02:38;12.93;;;8.03;;
3131;SDS011;62090;52.330;9.104;2023-08-24T08:05:08;13.67;;;7.97;;
3131;SDS011;62090;52.330;9.104;2023-08-24T08:07:39;12.20;;;7.13;;
3131;SDS011;62090;52.330;9.104;2023-08-24T08:10:09;11.40;;;6.90;;
3131;SDS011;62090;52.330;9.104;2023-08-24T08:12:39;13.90;;;7.57;;
3131;SDS011;62090;52.330;9.104;2023-08-24T08:15:12;19.60;;;8.23;;
3131;SDS011;62090;52.330;9.104;2023-08-24T08:17:42;13.07;;;7.77;;
3131;SDS011;62090;52.330;9.104;2023-08-24T08:20:13;12.53;;;6.97;;
3131;SDS011;62090;52.330;9.104;2023-08-24T08:22:43;11.30;;;6.33;;
3131;SDS011;62090;52.330;9.104;2023-08-24T08:25:14;16.63;;;7.90;;
3131;SDS011;62090;52.330;9.104;2023-08-24T08:27:45;11.60;;;7.93;;
3131;SDS011;62090;52.330;9.104;2023-08-24T08:30:18;12.43;;;7.90;;
3131;SDS011;62090;52.330;9.104;2023-08-24T08:32:49;7.13;;;6.27;;
3131;SDS011;62090;52.330;9.104;2023-08-24T08:35:21;16.60;;;7.33;;
3131;SDS011;62090;52.330;9.104;2023-08-24T08:37:51;8.73;;;6.73;;
3131;SDS011;62090;52.330;9.104;2023-08-24T08:40:21;7.30;;;5.80;;
3131;SDS011;62090;52.330;9.104;2023-08-24T08:42:57;12.20;;;6.57;;
3131;SDS011;62090;52.330;9.104;2023-08-24T08:45:30;11.33;;;5.70;;
3131;SDS011;62090;52.330;9.104;2023-08-24T08:48:00;8.40;;;5.77;;
3131;SDS011;62090;52.330;9.104;2023-08-24T08:50:32;8.43;;;5.37;;
3131;SDS011;62090;52.330;9.104;2023-08-24T08:53:03;15.10;;;5.80;;
3131;SDS011;62090;52.330;9.104;2023-08-24T08:55:33;8.80;;;5.73;;
3131;SDS011;62090;52.330;9.104;2023-08-24T08:58:03;11.63;;;5.20;;
3131;SDS011;62090;52.330;9.104;2023-08-24T09:00:36;6.60;;;4.30;;
3131;SDS011;62090;52.330;9.104;2023-08-24T09:03:07;6.80;;;4.73;;
3131;SDS011;62090;52.330;9.104;2023-08-24T09:05:38;6.43;;;5.17;;
3131;SDS011;62090;52.330;9.104;2023-08-24T09:08:08;8.37;;;5.40;;
3131;SDS011;62090;52.330;9.104;2023-08-24T09:10:38;10.23;;;4.97;;
3131;SDS011;62090;52.330;9.104;2023-08-24T09:13:08;9.10;;;5.40;;
3131;SDS011;62090;52.330;9.104;2023-08-24T09:15:41;9.20;;;5.80;;
3131;SDS011;62090;52.330;9.104;2023-08-24T09:18:12;12.43;;;5.10;;
3131;SDS011;62090;52.330;9.104;2023-08-24T09:20:42;10.30;;;5.27;;
3131;SDS011;62090;52.330;9.104;2023-08-24T09:23:17;15.40;;;7.70;;
3131;SDS011;62090;52.330;9.104;2023-08-24T09:25:48;12.97;;;6.33;;
3131;SDS011;62090;52.330;9.104;2023-08-24T09:28:22;12.90;;;6.30;;
3131;SDS011;62090;52.330;9.104;2023-08-24T09:30:54;13.07;;;5.57;;
3131;SDS011;62090;52.330;9.104;2023-08-24T09:33:24;9.73;;;5.20;;
3131;SDS011;62090;52.330;9.104;2023-08-24T09:35:54;6.40;;;4.53;;
3131;SDS011;62090;52.330;9.104;2023-08-24T09:38:28;10.37;;;4.50;;
3131;SDS011;62090;52.330;9.104;2023-08-24T09:40:58;8.80;;;5.60;;
3131;SDS011;62090;52.330;9.104;2023-08-24T09:43:29;11.40;;;4.40;;
3131;SDS011;62090;52.330;9.104;2023-08-24T09:46:02;12.20;;;5.10;;
3131;SDS011;62090;52.330;9.104;2023-08-24T09:48:33;10.60;;;5.23;;
3131;SDS011;62090;52.330;9.104;2023-08-24T09:51:06;11.30;;;5.10;;
3131;SDS011;62090;52.330;9.104;2023-08-24T09:53:37;11.20;;;5.63;;
3131;SDS011;62090;52.330;9.104;2023-08-24T09:56:10;10.90;;;5.40;;
3131;SDS011;62090;52.330;9.104;2023-08-24T09:58:43;9.60;;;5.60;;
3131;SDS011;62090;52.330;9.104;2023-08-24T10:01:18;9.00;;;4.60;;
3131;SDS011;62090;52.330;9.104;2023-08-24T10:03:49;8.83;;;4.40;;
3131;SDS011;62090;52.330;9.104;2023-08-24T10:06:22;7.43;;;3.90;;
3131;SDS011;62090;52.330;9.104;2023-08-24T10:08:58;14.50;;;3.97;;
3131;SDS011;62090;52.330;9.104;2023-08-24T10:11:31;6.27;;;2.70;;
3131;SDS011;62090;52.330;9.104;2023-08-24T10:14:08;6.40;;;3.50;;
3131;SDS011;62090;52.330;9.104;2023-08-24T10:16:47;13.43;;;3.70;;
3131;SDS011;62090;52.330;9.104;2023-08-24T10:19:19;6.90;;;3.13;;
3131;SDS011;62090;52.330;9.104;2023-08-24T10:21:51;14.73;;;2.73;;
3131;SDS011;62090;52.330;9.104;2023-08-24T10:24:23;6.90;;;3.30;;
3131;SDS011;62090;52.330;9.104;2023-08-24T10:26:54;9.90;;;2.90;;
3131;SDS011;62090;52.330;9.104;2023-08-24T10:29:24;4.30;;;2.27;;
3131;SDS011;62090;52.330;9.104;2023-08-24T10:32:00;5.93;;;3.10;;
3131;SDS011;62090;52.330;9.104;2023-08-24T10:34:31;4.90;;;2.30;;
3131;SDS011;62090;52.330;9.104;2023-08-24T10:37:06;6.70;;;2.73;;
3131;SDS011;62090;52.330;9.104;2023-08-24T10:39:43;5.60;;;3.13;;
3131;SDS011;62090;52.330;9.104;2023-08-24T10:42:13;6.60;;;2.73;;
3131;SDS011;62090;52.330;9.104;2023-08-24T10:44:44;6.73;;;3.40;;
3131;SDS011;62090;52.330;9.104;2023-08-24T10:47:20;6.20;;;2.97;;
3131;SDS011;62090;52.330;9.104;2023-08-24T10:49:59;5.00;;;3.00;;
3131;SDS011;62090;52.330;9.104;2023-08-24T10:52:32;6.13;;;3.43;;
3131;SDS011;62090;52.330;9.104;2023-08-24T10:55:21;6.83;;;3.30;;
3131;SDS011;62090;52.330;9.104;2023-08-24T10:57:55;9.17;;;3.03;;
3131;SDS011;62090;52.330;9.104;2023-08-24T11:00:26;8.80;;;3.47;;
3131;SDS011;62090;52.330;9.104;2023-08-24T11:03:00;7.40;;;3.13;;
3131;SDS011;62090;52.330;9.104;2023-08-24T11:05:31;14.73;;;3.90;;
3131;SDS011;62090;52.330;9.104;2023-08-24T11:08:03;8.07;;;4.23;;
3131;SDS011;62090;52.330;9.104;2023-08-24T11:10:35;9.07;;;4.30;;
3131;SDS011;62090;52.330;9.104;2023-08-24T11:13:17;8.83;;;4.50;;
3131;SDS011;62090;52.330;9.104;2023-08-24T11:15:50;20.30;;;4.13;;
3131;SDS011;62090;52.330;9.104;2023-08-24T11:18:25;5.20;;;3.43;;
3131;SDS011;62090;52.330;9.104;2023-08-24T11:20:56;4.47;;;3.47;;
3131;SDS011;62090;52.330;9.104;2023-08-24T11:23:30;5.57;;;2.93;;
3131;SDS011;62090;52.330;9.104;2023-08-24T11:26:00;5.43;;;3.27;;
3131;SDS011;62090;52.330;9.104;2023-08-24T11:28:30;8.13;;;3.53;;
3131;SDS011;62090;52.330;9.104;2023-08-24T11:31:00;6.90;;;3.20;;
3131;SDS011;62090;52.330;9.104;2023-08-24T11:33:34;3.93;;;2.97;;
3131;SDS011;62090;52.330;9.104;2023-08-24T11:36:04;10.77;;;3.80;;
3131;SDS011;62090;52.330;9.104;2023-08-24T11:38:35;5.20;;;2.70;;
3131;SDS011;62090;52.330;9.104;2023-08-24T11:41:11;6.13;;;3.10;;
3131;SDS011;62090;52.330;9.104;2023-08-24T11:43:41;5.37;;;2.90;;
3131;SDS011;62090;52.330;9.104;2023-08-24T11:46:12;5.77;;;3.17;;
3131;SDS011;62090;52.330;9.104;2023-08-24T11:48:45;7.57;;;3.10;;
3131;SDS011;62090;52.330;9.104;2023-08-24T11:51:15;4.30;;;2.80;;
3131;SDS011;62090;52.330;9.104;2023-08-24T11:54:03;5.87;;;2.83;;
3131;SDS011;62090;52.330;9.104;2023-08-24T11:56:40;6.20;;;2.80;;
3131;SDS011;62090;52.330;9.104;2023-08-24T11:59:11;6.03;;;3.00;;
3131;SDS011;62090;52.330;9.104;2023-08-24T12:01:42;6.20;;;3.83;;
3131;SDS011;62090;52.330;9.104;2023-08-24T12:04:16;13.30;;;3.10;;
3131;SDS011;62090;52.330;9.104;2023-08-24T12:06:46;10.63;;;3.20;;
3131;SDS011;62090;52.330;9.104;2023-08-24T12:09:16;10.37;;;3.20;;
3131;SDS011;62090;52.330;9.104;2023-08-24T12:11:45;8.63;;;3.10;;
3131;SDS011;62090;52.330;9.104;2023-08-24T12:14:18;5.70;;;3.07;;
3131;SDS011;62090;52.330;9.104;2023-08-24T12:16:49;10.03;;;2.57;;
3131;SDS011;62090;52.330;9.104;2023-08-24T12:19:23;6.40;;;2.83;;
3131;SDS011;62090;52.330;9.104;2023-08-24T12:21:53;8.30;;;2.77;;
3131;SDS011;62090;52.330;9.104;2023-08-24T12:24:23;6.47;;;2.87;;
3131;SDS011;62090;52.330;9.104;2023-08-24T12:26:55;3.80;;;2.20;;
3131;SDS011;62090;52.330;9.104;2023-08-24T12:29:26;7.33;;;2.47;;
3131;SDS011;62090;52.330;9.104;2023-08-24T12:31:57;3.23;;;2.23;;
3131;SDS011;62090;52.330;9.104;2023-08-24T12:34:30;4.20;;;2.27;;
3131;SDS011;62090;52.330;9.104;2023-08-24T12:37:00;4.53;;;2.30;;
3131;SDS011;62090;52.330;9.104;2023-08-24T12:39:34;6.70;;;2.77;;
3131;SDS011;62090;52.330;9.104;2023-08-24T12:42:04;4.67;;;2.13;;
3131;SDS011;62090;52.330;9.104;2023-08-24T12:44:35;3.10;;;2.00;;
3131;SDS011;62090;52.330;9.104;2023-08-24T12:47:05;6.67;;;2.93;;
3131;SDS011;62090;52.330;9.104;2023-08-24T12:49:38;4.20;;;2.13;;
3131;SDS011;62090;52.330;9.104;2023-08-24T12:52:08;6.93;;;2.70;;
3131;SDS011;62090;52.330;9.104;2023-08-24T12:54:38;5.23;;;2.90;;
3131;SDS011;62090;52.330;9.104;2023-08-24T12:57:08;6.00;;;2.10;;
3131;SDS011;62090;52.330;9.104;2023-08-24T12:59:38;4.00;;;2.00;;
3131;SDS011;62090;52.330;9.104;2023-08-24T13:02:08;9.83;;;3.47;;
3131;SDS011;62090;52.330;9.104;2023-08-24T13:04:57;6.00;;;2.40;;
3131;SDS011;62090;52.330;9.104;2023-08-24T13:07:31;3.90;;;2.30;;
3131;SDS011;62090;52.330;9.104;2023-08-24T13:10:02;9.30;;;2.23;;
3131;SDS011;62090;52.330;9.104;2023-08-24T13:12:33;4.47;;;2.03;;
3131;SDS011;62090;52.330;9.104;2023-08-24T13:15:05;4.37;;;2.30;;
3131;SDS011;62090;52.330;9.104;2023-08-24T13:17:36;5.10;;;2.47;;
3131;SDS011;62090;52.330;9.104;2023-08-24T13:20:09;5.53;;;2.63;;
3131;SDS011;62090;52.330;9.104;2023-08-24T13:22:39;5.83;;;2.50;;
3131;SDS011;62090;52.330;9.104;2023-08-24T13:25:07;14.77;;;4.83;;
3131;SDS011;62090;52.330;9.104;2023-08-24T13:27:38;7.03;;;3.00;;
3131;SDS011;62090;52.330;9.104;2023-08-24T13:30:08;9.73;;;3.70;;
3131;SDS011;62090;52.330;9.104;2023-08-24T13:32:38;6.53;;;2.77;;
3131;SDS011;62090;52.330;9.104;2023-08-24T14:38:00;10.30;;;3.40;;
3131;SDS011;62090;52.330;9.104;2023-08-24T14:40:30;9.93;;;3.13;;
3131;SDS011;62090;52.330;9.104;2023-08-24T14:43:03;3.27;;;2.40;;
3131;SDS011;62090;52.330;9.104;2023-08-24T14:45:36;9.00;;;4.43;;
3131;SDS011;62090;52.330;9.104;2023-08-24T14:48:07;6.87;;;4.83;;
3131;SDS011;62090;52.330;9.104;2023-08-24T14:50:37;4.40;;;2.90;;
3131;SDS011;62090;52.330;9.104;2023-08-24T14:53:10;6.43;;;2.87;;
3131;SDS011;62090;52.330;9.104;2023-08-24T14:55:40;4.37;;;2.60;;
3131;SDS011;62090;52.330;9.104;2023-08-24T14:58:10;3.80;;;2.30;;
3131;SDS011;62090;52.330;9.104;2023-08-24T15:00:40;9.17;;;3.23;;
3131;SDS011;62090;52.330;9.104;2023-08-24T15:03:11;6.93;;;2.87;;
3131;SDS011;62090;52.330;9.104;2023-08-24T15:05:43;7.13;;;2.73;;
3131;SDS011;62090;52.330;9.104;2023-08-24T15:08:16;14.97;;;3.93;;
3131;SDS011;62090;52.330;9.104;2023-08-24T15:10:47;11.10;;;4.60;;
3131;SDS011;62090;52.330;9.104;2023-08-24T15:13:17;7.37;;;3.00;;
3131;SDS011;62090;52.330;9.104;2023-08-24T15:15:47;6.33;;;2.90;;
3131;SDS011;62090;52.330;9.104;2023-08-24T15:18:17;9.80;;;3.27;;
3131;SDS011;62090;52.330;9.104;2023-08-24T15:20:47;4.57;;;2.83;;
3131;SDS011;62090;52.330;9.104;2023-08-24T15:23:23;7.33;;;3.13;;
3131;SDS011;62090;52.330;9.104;2023-08-24T15:25:55;7.27;;;2.50;;
3131;SDS011;62090;52.330;9.104;2023-08-24T15:28:26;8.43;;;3.17;;
3131;SDS011;62090;52.330;9.104;2023-08-24T15:31:05;6.40;;;2.70;;
3131;SDS011;62090;52.330;9.104;2023-08-24T15:33:35;13.87;;;2.60;;
3131;SDS011;62090;52.330;9.104;2023-08-24T15:36:05;7.37;;;3.20;;
3131;SDS011;62090;52.330;9.104;2023-08-24T15:38:37;3.93;;;2.40;;
3131;SDS011;62090;52.330;9.104;2023-08-24T15:41:07;5.20;;;2.33;;
3131;SDS011;62090;52.330;9.104;2023-08-24T15:43:37;4.03;;;2.80;;
3131;SDS011;62090;52.330;9.104;2023-08-24T15:46:06;5.33;;;2.90;;
3131;SDS011;62090;52.330;9.104;2023-08-24T15:48:36;4.80;;;2.80;;
3131;SDS011;62090;52.330;9.104;2023-08-24T15:51:07;4.03;;;2.50;;
3131;SDS011;62090;52.330;9.104;2023-08-24T15:53:39;6.70;;;2.87;;
3131;SDS011;62090;52.330;9.104;2023-08-24T15:56:09;6.87;;;3.03;;
3131;SDS011;62090;52.330;9.104;2023-08-24T15:58:39;6.30;;;2.90;;
3131;SDS011;62090;52.330;9.104;2023-08-24T16:01:09;8.10;;;3.30;;
3131;SDS011;62090;52.330;9.104;2023-08-24T16:03:39;7.43;;;3.03;;
3131;SDS011;62090;52.330;9.104;2023-08-24T16:06:09;11.80;;;3.30;;
3131;SDS011;62090;52.330;9.104;2023-08-24T16:08:41;6.97;;;3.27;;
3131;SDS011;62090;52.330;9.104;2023-08-24T16:11:11;7.97;;;3.40;;
3131;SDS011;62090;52.330;9.104;2023-08-24T16:13:41;8.07;;;2.83;;
3131;SDS011;62090;52.330;9.104;2023-08-24T16:16:11;6.10;;;3.17;;
3131;SDS011;62090;52.330;9.104;2023-08-24T16:18:41;11.37;;;2.83;;
3131;SDS011;62090;52.330;9.104;2023-08-24T16:21:11;8.23;;;3.23;;
3131;SDS011;62090;52.330;9.104;2023-08-24T16:23:43;4.67;;;2.97;;
3131;SDS011;62090;52.330;9.104;2023-08-24T16:26:13;8.83;;;2.67;;